Time;durP1;ratioP1;P1;durP2;ratioP2;P2;SDS_P1;SDS_P2;PMS_P1;PMS_P2;Temp;Humidity;BMP_temperature;BMP_pressure;BME280_temperature;BME280_humidity;BME280_pressure;Samples;Min_cycle;Max_cycle;Signal;HPM_P1;HPM_P2
2022/05/16 00:00:49;;;;;;;21.40;6.68;;;;;;;16.88;78.94;101030.66;4995913;28;20397;-78
2022/05/16 00:03:15;;;;;;;23.95;7.20;;;;;;;16.91;78.29;101024.81;4993537;28;20557;-78
2022/05/16 00:05:41;;;;;;;25.15;7.07;;;;;;;16.94;78.30;101027.25;4995429;28;20038;-78
2022/05/16 00:08:07;;;;;;;20.83;6.57;;;;;;;16.99;78.37;101022.13;4961204;28;20041;-78
2022/05/16 00:10:34;;;;;;;29.83;7.68;;;;;;;16.89;78.78;101019.44;5010561;28;20038;-77
2022/05/16 00:13:01;;;;;;;23.95;7.55;;;;;;;16.90;79.31;101028.59;5007164;28;20034;-78
2022/05/16 00:15:28;;;;;;;29.27;8.15;;;;;;;16.82;79.15;101028.47;4981907;28;20042;-78
2022/05/16 00:17:53;;;;;;;29.95;8.35;;;;;;;16.82;79.23;101015.53;4996745;28;20030;-77
2022/05/16 00:20:19;;;;;;;34.13;8.60;;;;;;;16.79;79.51;101012.19;4998208;28;20038;-79
2022/05/16 00:22:44;;;;;;;25.33;8.10;;;;;;;16.74;79.90;101015.44;4996057;28;20053;-77
2022/05/16 00:25:12;;;;;;;27.75;8.02;;;;;;;16.66;79.87;101002.44;4982849;28;20061;-77
2022/05/16 00:27:38;;;;;;;26.50;7.75;;;;;;;16.67;80.37;101004.13;4981621;28;20057;-77
2022/05/16 00:30:11;;;;;;;25.45;7.85;;;;;;;16.60;81.27;101002.19;5014393;28;20549;-77
2022/05/16 00:32:36;;;;;;;29.30;8.65;;;;;;;16.57;81.74;101002.50;5003273;28;20026;-76
2022/05/16 00:35:04;;;;;;;32.50;8.98;;;;;;;16.56;81.74;100993.34;4981178;28;20052;-77
2022/05/16 00:37:29;;;;;;;26.70;8.65;;;;;;;16.50;82.07;100983.78;5002756;28;20034;-77
2022/05/16 00:39:55;;;;;;;37.55;8.23;;;;;;;16.40;83.10;100990.38;5003983;28;20037;-77
2022/05/16 00:42:21;;;;;;;34.20;8.20;;;;;;;16.52;82.12;100984.47;4997331;28;20363;-77
2022/05/16 00:44:46;;;;;;;29.25;8.35;;;;;;;16.45;82.90;100990.81;5005796;28;20325;-79
2022/05/16 00:47:13;;;;;;;29.27;8.40;;;;;;;16.53;82.71;100988.13;4988576;28;20035;-77
2022/05/16 00:49:42;;;;;;;27.02;8.90;;;;;;;16.42;83.12;100985.59;5003618;28;20038;-77
2022/05/16 00:52:27;;;;;;;35.17;8.52;;;;;;;16.42;83.23;100978.16;4998368;28;20045;-76
2022/05/16 00:55:00;;;;;;;28.17;8.00;;;;;;;16.42;83.24;100983.69;5021498;28;20125;-78
2022/05/16 00:58:00;;;;;;;28.27;9.20;;;;;;;16.41;83.77;100984.69;5006112;28;20049;-78
2022/05/16 01:00:31;;;;;;;28.15;7.38;;;;;;;16.43;83.43;100979.00;4978973;28;20038;-77
2022/05/16 01:05:52;;;;;;;33.17;8.25;;;;;;;16.30;84.73;100977.53;5002683;28;20038;-77
2022/05/16 01:08:25;;;;;;;26.98;8.07;;;;;;;16.42;84.46;100982.81;5003627;28;20038;-78
2022/05/16 01:10:57;;;;;;;26.05;8.48;;;;;;;16.47;83.65;100980.47;5003885;28;20022;-77
2022/05/16 01:13:29;;;;;;;27.00;8.70;;;;;;;16.42;84.37;100982.81;5004975;28;20030;-77
2022/05/16 01:15:56;;;;;;;31.35;8.98;;;;;;;16.40;84.79;100976.56;4992730;28;20034;-77
2022/05/16 01:18:24;;;;;;;24.42;8.10;;;;;;;16.37;84.98;100976.91;4992460;28;20042;-78
2022/05/16 01:20:56;;;;;;;30.10;9.10;;;;;;;16.40;84.91;100979.31;4992269;28;20038;-78
2022/05/16 01:23:24;;;;;;;30.00;9.70;;;;;;;16.34;85.33;100975.31;5002072;28;20038;-77
2022/05/16 01:25:51;;;;;;;31.95;8.52;;;;;;;16.41;85.27;100983.84;5014666;28;20386;-78
2022/05/16 01:28:20;;;;;;;27.08;8.48;;;;;;;16.42;84.91;100980.06;4988020;28;20030;-77
2022/05/16 01:30:49;;;;;;;31.52;8.70;;;;;;;16.40;85.34;100979.31;4990389;28;20482;-77
2022/05/16 01:33:21;;;;;;;29.10;8.07;;;;;;;16.45;84.95;100972.31;4999957;28;20041;-77
2022/05/16 01:35:47;;;;;;;22.65;7.57;;;;;;;16.41;85.39;100973.66;5008017;28;20038;-79
2022/05/16 01:38:22;;;;;;;22.63;8.13;;;;;;;16.44;85.74;100989.06;5009634;28;20033;-78
2022/05/16 01:40:48;;;;;;;28.88;8.15;;;;;;;16.45;85.60;100977.84;5007360;28;20130;-77
2022/05/16 01:43:15;;;;;;;30.85;8.52;;;;;;;16.50;85.00;100981.00;4999853;28;20038;-77
2022/05/16 01:45:43;;;;;;;24.98;8.55;;;;;;;16.45;85.49;100977.84;5018556;28;20024;-77
2022/05/16 01:48:10;;;;;;;37.17;9.45;;;;;;;16.41;85.71;100975.53;5019646;28;20031;-77
2022/05/16 01:50:35;;;;;;;23.80;8.73;;;;;;;16.34;86.37;100978.06;5002181;28;20049;-77
2022/05/16 01:53:01;;;;;;;25.95;9.23;;;;;;;16.27;86.68;100964.00;4996662;28;20026;-79
2022/05/16 01:55:26;;;;;;;24.63;9.10;;;;;;;16.22;87.40;100965.53;5002890;28;20197;-77
2022/05/16 01:57:52;;;;;;;29.10;9.10;;;;;;;16.13;88.05;100957.16;5007971;28;20093;-78
2022/05/16 02:00:18;;;;;;;27.23;8.43;;;;;;;16.10;87.65;100954.69;5008526;28;20066;-77
2022/05/16 02:02:44;;;;;;;33.67;8.80;;;;;;;16.04;89.51;100958.06;5005044;28;20042;-77
2022/05/16 02:05:14;;;;;;;35.20;9.13;;;;;;;16.03;88.70;100948.03;4979058;28;20035;-78
2022/05/16 02:07:40;;;;;;;31.88;9.68;;;;;;;15.97;89.40;100949.53;4989452;28;20093;-78
2022/05/16 02:10:10;;;;;;;29.30;9.48;;;;;;;15.95;89.77;100961.75;5007811;28;20045;-77
2022/05/16 02:12:36;;;;;;;33.22;10.13;;;;;;;15.79;91.57;100949.47;5009253;28;20030;-77
2022/05/16 02:15:05;;;;;;;30.02;9.85;;;;;;;15.77;92.23;100957.06;5004091;28;20089;-78
2022/05/16 02:17:30;;;;;;;28.38;9.57;;;;;;;15.74;91.86;100951.81;5007832;28;20044;-76
2022/05/16 02:19:56;;;;;;;21.08;9.32;;;;;;;15.82;92.44;100955.72;5008450;28;20066;-77
2022/05/16 02:25:06;;;;;;;37.38;9.80;;;;;;;15.73;92.49;100952.81;5008807;28;20057;-76
2022/05/16 02:27:32;;;;;;;24.85;10.13;;;;;;;15.69;93.40;100948.63;5009498;28;20030;-77
2022/05/16 02:29:57;;;;;;;33.88;10.98;;;;;;;15.70;92.86;100946.72;4998818;28;20110;-77
2022/05/16 02:32:23;;;;;;;30.33;10.68;;;;;;;15.66;94.17;100946.19;4968708;28;20094;-77
2022/05/16 02:34:49;;;;;;;36.90;11.52;;;;;;;15.63;93.30;100943.72;5009895;28;20049;-77
2022/05/16 02:37:15;;;;;;;42.83;11.70;;;;;;;15.50;95.00;100941.31;5009957;28;20026;-78
2022/05/16 02:39:44;;;;;;;22.48;10.75;;;;;;;15.52;94.05;100927.34;5007255;28;20046;-77
2022/05/16 02:42:11;;;;;;;28.73;11.20;;;;;;;15.61;93.25;100927.31;5008692;28;20042;-77
2022/05/16 02:44:38;;;;;;;36.00;11.10;;;;;;;15.48;95.21;100934.19;5004871;28;20034;-77
2022/05/16 02:47:05;;;;;;;40.20;11.90;;;;;;;15.47;94.54;100918.66;5007464;28;20105;-76
2022/05/16 02:49:31;;;;;;;36.97;12.13;;;;;;;15.42;95.04;100921.88;4997352;28;20033;-78
2022/05/16 02:51:57;;;;;;;31.77;12.20;;;;;;;15.36;95.66;100919.72;4994698;28;20022;-78
2022/05/16 02:54:22;;;;;;;31.25;12.20;;;;;;;15.23;97.78;100920.94;5005517;28;20041;-77
2022/05/16 02:56:48;;;;;;;41.00;13.60;;;;;;;15.18;98.58;100917.75;5004555;28;20470;-77
2022/05/16 02:59:14;;;;;;;50.22;13.85;;;;;;;15.18;98.18;100909.50;5004965;28;20034;-77
2022/05/16 03:01:40;;;;;;;39.78;12.30;;;;;;;15.37;97.01;100919.56;5018693;28;20367;-77
2022/05/16 03:04:05;;;;;;;32.72;12.95;;;;;;;15.39;96.19;100908.38;5006838;28;20049;-77
2022/05/16 03:06:31;;;;;;;44.17;12.63;;;;;;;15.30;96.88;100909.28;4972617;28;20039;-78
2022/05/16 03:08:56;;;;;;;31.63;12.50;;;;;;;15.35;95.45;100899.53;4990245;28;20046;-78
2022/05/16 03:11:25;;;;;;;30.90;13.85;;;;;;;15.14;97.23;100902.50;4973596;28;20041;-77
2022/05/16 03:13:51;;;;;;;38.05;13.45;;;;;;;15.09;97.63;100896.59;4982806;28;20034;-77
2022/05/16 03:16:17;;;;;;;39.10;13.20;;;;;;;15.01;98.38;100888.19;5001332;28;20041;-78
2022/05/16 03:18:43;;;;;;;38.58;12.98;;;;;;;15.05;98.01;100892.38;5008858;28;20085;-77
2022/05/16 03:21:09;;;;;;;35.95;13.05;;;;;;;15.14;96.94;100897.00;4988158;28;20045;-77
2022/05/16 03:23:35;;;;;;;36.63;13.55;;;;;;;15.11;97.39;100891.78;4976890;28;20034;-77
2022/05/16 03:26:01;;;;;;;46.90;13.60;;;;;;;15.13;97.13;100894.38;5003125;28;20039;-78
2022/05/16 03:28:26;;;;;;;34.63;12.48;;;;;;;15.12;96.89;100896.28;4990419;28;20035;-79
2022/05/16 03:30:55;;;;;;;34.65;13.93;;;;;;;15.02;98.75;100895.44;4973168;28;20491;-78
2022/05/16 03:33:21;;;;;;;31.35;13.00;;;;;;;14.98;99.38;100900.38;5000287;28;20061;-79
2022/05/16 03:35:46;;;;;;;33.47;12.90;;;;;;;15.11;97.66;100897.31;4984567;28;20526;-78
2022/05/16 03:40:41;;;;;;;33.78;12.75;;;;;;;15.15;97.31;100900.63;5015368;28;20478;-76
2022/05/16 03:40:57;;;;;;;33.13;12.48;;;;;;;15.17;97.11;100896.69;4997968;28;20389;-78
2022/05/16 03:43:23;;;;;;;35.60;13.27;;;;;;;15.00;99.14;100897.47;4997250;28;20034;-77
2022/05/16 03:45:49;;;;;;;31.40;12.88;;;;;;;15.09;97.28;100898.47;4994885;28;20482;-77
2022/05/16 03:48:15;;;;;;;34.03;13.63;;;;;;;15.03;97.66;100894.41;4998815;28;20525;-79
2022/05/16 03:50:41;;;;;;;41.22;14.15;;;;;;;15.05;97.78;100907.06;4979488;28;20031;-78
2022/05/16 03:53:06;;;;;;;34.92;13.00;;;;;;;15.11;97.34;100901.97;4997798;28;20046;-79
2022/05/16 03:55:32;;;;;;;36.80;14.60;;;;;;;14.89;99.04;100885.59;4990346;28;20047;-78
2022/05/16 03:57:59;;;;;;;32.42;13.18;;;;;;;15.05;97.80;100900.66;4998517;28;20065;-79
2022/05/16 04:00:24;;;;;;;48.60;14.02;;;;;;;15.15;98.24;100914.41;4997943;28;20046;-78
2022/05/16 04:02:51;;;;;;;48.15;13.95;;;;;;;15.06;98.66;100907.91;5015989;28;20112;-79
2022/05/16 04:05:19;;;;;;;40.90;15.68;;;;;;;15.21;98.59;100913.81;4997096;28;20034;-79
2022/05/16 04:07:47;;;;;;;32.97;13.65;;;;;;;15.33;96.53;100898.84;4999112;28;20065;-78
2022/05/16 04:10:13;;;;;;;50.03;14.13;;;;;;;15.36;96.46;100900.41;4996429;28;20054;-80
2022/05/16 04:12:43;;;;;;;30.88;13.35;;;;;;;15.40;96.27;100901.84;5008881;28;20029;-78
2022/05/16 04:15:11;;;;;;;39.75;14.75;;;;;;;15.37;95.86;100896.63;4984760;28;20037;-79
2022/05/16 04:17:36;;;;;;;46.75;14.85;;;;;;;15.34;97.25;100896.94;4980701;28;20042;-79
2022/05/16 04:20:04;;;;;;;38.47;14.88;;;;;;;15.20;97.50;100895.50;4982255;28;20030;-79
2022/05/16 04:22:30;;;;;;;39.50;14.88;;;;;;;15.26;97.19;100892.16;4977790;28;20051;-80
2022/05/16 04:24:56;;;;;;;39.63;14.85;;;;;;;15.21;99.61;100889.84;5000255;28;20080;-80
2022/05/16 04:27:22;;;;;;;38.55;15.52;;;;;;;15.15;100.00;100898.75;4978810;28;20125;-79
2022/05/16 04:29:47;;;;;;;42.55;17.30;;;;;;;15.16;99.33;100892.19;4969928;28;20134;-79
2022/05/16 04:32:13;;;;;;;46.45;17.67;;;;;;;15.34;97.62;100895.03;4996123;28;20041;-79
2022/05/16 04:34:38;;;;;;;46.72;16.92;;;;;;;15.47;97.46;100891.06;4998226;28;20109;-79
2022/05/16 04:37:05;;;;;;;41.70;17.00;;;;;;;15.54;96.42;100893.03;4979974;28;20397;-79
2022/05/16 04:39:30;;;;;;;47.75;19.08;;;;;;;15.65;95.91;100886.47;4979590;28;20500;-79
2022/05/16 04:44:42;;;;;;;55.83;19.15;;;;;;;15.71;98.62;100893.25;4970483;28;20043;-80
2022/05/16 04:47:09;;;;;;;49.45;18.45;;;;;;;15.95;96.91;100901.88;4962296;28;20073;-79
2022/05/16 04:49:35;;;;;;;45.55;19.70;;;;;;;16.01;97.07;100893.97;4994565;28;20038;-77
2022/05/16 04:52:01;;;;;;;56.08;15.90;;;;;;;16.18;95.76;100906.91;5012753;28;20045;-79
2022/05/16 04:54:27;;;;;;;41.40;13.75;;;;;;;16.33;93.57;100908.13;4980316;28;20126;-79
2022/05/16 04:56:53;;;;;;;30.27;13.00;;;;;;;16.57;91.48;100920.44;4978727;28;20042;-78
2022/05/16 04:59:20;;;;;;;53.10;14.13;;;;;;;16.66;90.87;100924.13;4995530;28;20027;-79
2022/05/16 05:01:46;;;;;;;39.28;11.88;;;;;;;16.80;90.71;100926.31;4978062;28;20104;-81
2022/05/16 05:04:15;;;;;;;38.42;11.07;;;;;;;16.88;89.93;100922.78;4982675;28;20043;-80
2022/05/16 05:06:41;;;;;;;31.20;10.80;;;;;;;17.05;88.79;100921.00;4991863;28;20034;-79
2022/05/16 05:09:08;;;;;;;38.55;10.82;;;;;;;17.10;87.86;100924.16;4995373;28;20031;-79
2022/05/16 05:14:32;;;;;;;34.67;10.60;;;;;;;17.40;86.88;100922.78;4994914;28;20042;-79
2022/05/16 05:17:04;;;;;;;39.25;11.18;;;;;;;17.35;86.80;100914.13;4973222;28;20073;-78
2022/05/16 05:19:31;;;;;;;37.63;11.35;;;;;;;17.41;87.16;100912.56;4994455;28;20073;-77
2022/05/16 05:21:57;;;;;;;35.70;11.00;;;;;;;17.49;86.80;100911.75;4990166;28;20050;-79
2022/05/16 05:24:22;;;;;;;37.58;9.98;;;;;;;17.74;85.05;100913.59;4978162;28;20039;-78
2022/05/16 05:26:48;;;;;;;27.35;9.95;;;;;;;17.88;83.96;100916.81;4999794;28;20148;-79
2022/05/16 05:29:15;;;;;;;42.20;11.27;;;;;;;18.21;83.33;100916.88;4947499;28;20577;-79
2022/05/16 05:31:41;;;;;;;31.23;10.48;;;;;;;18.56;81.17;100912.94;4981596;28;20042;-79
2022/05/16 05:34:08;;;;;;;37.42;9.30;;;;;;;18.65;81.54;100909.13;4967920;28;20463;-82
2022/05/16 05:36:34;;;;;;;36.00;10.98;;;;;;;18.74;80.85;100921.97;4994358;28;20030;-79
2022/05/16 05:39:01;;;;;;;34.75;9.18;;;;;;;18.49;81.08;100911.91;4973317;28;20046;-79
2022/05/16 05:41:27;;;;;;;23.15;8.80;;;;;;;18.43;82.77;100910.69;4976119;28;20026;-80
2022/05/16 05:43:54;;;;;;;38.35;9.90;;;;;;;18.41;82.92;100918.28;4994952;28;20039;-79
2022/05/16 05:46:20;;;;;;;27.92;9.27;;;;;;;18.32;82.32;100916.56;4971739;28;20058;-79
2022/05/16 05:48:46;;;;;;;29.13;8.77;;;;;;;18.30;83.19;100929.72;4980950;28;20452;-78
2022/05/16 05:51:12;;;;;;;23.63;8.95;;;;;;;18.19;84.44;100909.59;4980789;28;20026;-79
2022/05/16 05:53:43;;;;;;;32.97;9.77;;;;;;;18.23;84.11;100918.44;5006726;28;20042;-79
2022/05/16 05:56:10;;;;;;;22.80;10.02;;;;;;;18.26;85.72;100911.69;4964224;28;20101;-80
2022/05/16 05:58:36;;;;;;;26.05;9.10;;;;;;;18.25;86.60;100908.06;4995383;28;20069;-79
2022/05/16 06:01:02;;;;;;;28.20;9.80;;;;;;;18.30;85.24;100905.66;4981520;28;20042;-79
2022/05/16 06:03:28;;;;;;;37.08;9.38;;;;;;;18.28;85.77;100920.69;5017001;28;20045;-79
2022/05/16 06:05:54;;;;;;;38.50;9.35;;;;;;;18.26;85.38;100929.19;4983796;28;20026;-81
2022/05/16 06:08:20;;;;;;;34.50;9.65;;;;;;;18.42;84.47;100927.50;4999810;28;20037;-79
2022/05/16 06:10:46;;;;;;;29.02;9.05;;;;;;;18.43;84.95;100940.31;4983354;28;20038;-79
2022/05/16 06:13:11;;;;;;;21.85;9.63;;;;;;;18.43;85.20;100946.75;4966253;28;20427;-79
2022/05/16 06:15:37;;;;;;;25.67;10.10;;;;;;;18.41;85.49;100950.72;4983452;28;20034;-79
2022/05/16 06:18:05;;;;;;;35.60;10.95;;;;;;;18.35;85.37;100955.03;5016808;28;20696;-79
2022/05/16 06:20:31;;;;;;;42.42;10.55;;;;;;;18.29;85.35;100959.34;4982357;28;20467;-78
2022/05/16 06:22:57;;;;;;;30.25;10.65;;;;;;;18.35;84.87;100955.03;4952877;28;20053;-79
2022/05/16 06:25:32;;;;;;;39.70;10.48;;;;;;;18.32;85.88;100956.22;5014508;28;20097;-79
2022/05/16 06:28:06;;;;;;;42.72;10.43;;;;;;;18.33;86.57;100957.97;4995688;28;20069;-79
2022/05/16 06:30:33;;;;;;;34.10;11.48;;;;;;;18.26;87.43;100961.59;4996119;28;20046;-79
2022/05/16 06:32:59;;;;;;;32.33;10.40;;;;;;;18.27;86.99;100955.88;4971528;28;20054;-80
2022/05/16 06:35:25;;;;;;;36.83;11.20;;;;;;;18.42;86.41;100966.31;5007147;28;20042;-79
2022/05/16 06:37:51;;;;;;;37.63;10.55;;;;;;;18.39;87.36;100961.97;4998628;28;20038;-80
2022/05/16 06:40:19;;;;;;;27.05;11.73;;;;;;;18.43;86.82;100971.69;4969809;28;20391;-79
2022/05/16 06:42:48;;;;;;;32.92;11.75;;;;;;;18.48;87.00;100974.81;4978906;28;20173;-78
2022/05/16 06:45:14;;;;;;;39.83;11.40;;;;;;;18.28;87.69;100982.56;4980843;28;20026;-78
2022/05/16 06:47:40;;;;;;;34.83;11.45;;;;;;;18.40;86.93;100982.22;4984033;28;20034;-79
2022/05/16 06:50:06;;;;;;;32.58;10.20;;;;;;;18.48;87.36;100994.22;4993709;28;20508;-79
2022/05/16 06:52:32;;;;;;;49.90;11.90;;;;;;;18.34;87.97;100997.66;4968331;28;20046;-78
2022/05/16 06:54:58;;;;;;;26.00;11.32;;;;;;;18.45;87.85;100999.25;4994516;28;20032;-78
2022/05/16 06:57:27;;;;;;;37.72;12.45;;;;;;;18.49;88.22;101003.41;4993962;28;20381;-78
2022/05/16 06:59:53;;;;;;;34.20;11.77;;;;;;;18.42;87.79;101000.44;5009258;28;20049;-77
2022/05/16 07:02:19;;;;;;;33.95;11.10;;;;;;;18.57;88.17;101008.09;4959878;28;20034;-77
2022/05/16 07:04:44;;;;;;;44.42;11.05;;;;;;;18.67;86.10;101008.81;4975153;28;20046;-77
2022/05/16 07:07:12;;;;;;;31.60;11.57;;;;;;;18.79;85.78;101009.34;4970658;28;20442;-79
2022/05/16 07:09:41;;;;;;;34.90;10.95;;;;;;;18.88;85.85;101003.66;4978600;28;20040;-79
2022/05/16 07:12:08;;;;;;;26.63;9.68;;;;;;;19.07;83.76;101002.47;4992887;28;20042;-80
2022/05/16 07:14:35;;;;;;;31.02;11.13;;;;;;;19.15;83.84;101007.16;4993762;28;20038;-78
2022/05/16 07:17:01;;;;;;;25.23;10.82;;;;;;;19.06;84.74;100999.88;5001603;28;20529;-78
2022/05/16 07:19:31;;;;;;;34.47;10.95;;;;;;;19.17;84.49;101001.41;4990076;28;20027;-79
2022/05/16 07:22:02;;;;;;;28.70;10.73;;;;;;;19.20;83.39;100999.16;4977653;28;20078;-78
2022/05/16 07:24:28;;;;;;;34.20;11.02;;;;;;;19.23;82.98;101006.25;4961249;28;20097;-78
2022/05/16 07:29:37;;;;;;;30.98;11.35;;;;;;;19.33;84.30;101008.84;4994177;28;20049;-78
2022/05/16 07:32:03;;;;;;;35.53;12.10;;;;;;;19.25;84.11;101010.63;4996696;28;20725;-79
2022/05/16 07:34:29;;;;;;;39.42;11.90;;;;;;;19.32;84.80;101007.16;4960302;28;20447;-79
2022/05/16 07:36:54;;;;;;;32.55;11.52;;;;;;;19.48;84.10;101012.66;4979463;28;20117;-78
2022/05/16 07:39:20;;;;;;;33.33;10.95;;;;;;;19.53;83.91;101007.44;4974998;28;20038;-79
2022/05/16 07:41:46;;;;;;;41.75;11.63;;;;;;;19.61;83.20;101012.09;4984449;28;20038;-78
2022/05/16 07:44:11;;;;;;;31.33;10.95;;;;;;;19.67;83.16;101014.19;5006326;28;20043;-78
2022/05/16 07:46:37;;;;;;;31.25;9.38;;;;;;;19.74;82.29;101006.00;4960038;28;20503;-80
2022/05/16 07:49:02;;;;;;;36.47;10.20;;;;;;;19.82;82.51;101019.91;4956318;28;20066;-80
2022/05/16 07:51:27;;;;;;;26.10;8.63;;;;;;;20.04;81.62;101012.72;4982057;28;20465;-79
2022/05/16 07:53:53;;;;;;;27.45;10.27;;;;;;;20.00;81.20;101016.88;4989077;28;20034;-79
2022/05/16 07:56:19;;;;;;;32.63;9.38;;;;;;;20.04;82.05;101006.25;4993422;28;20035;-80
2022/05/16 07:58:44;;;;;;;30.48;9.50;;;;;;;20.09;81.91;101014.97;4960829;28;20053;-79
2022/05/16 08:01:09;;;;;;;29.20;10.48;;;;;;;20.11;82.25;101023.97;4980302;28;20072;-78
2022/05/16 08:03:39;;;;;;;27.60;9.77;;;;;;;20.06;82.28;101018.94;4962911;28;20038;-78
2022/05/16 08:06:05;;;;;;;20.20;10.93;;;;;;;20.23;82.13;101018.88;4993187;28;20041;-81
2022/05/16 08:11:15;;;;;;;26.35;11.25;;;;;;;20.75;81.01;101023.81;4970345;28;20042;-80
2022/05/16 08:13:42;;;;;;;33.45;11.48;;;;;;;20.89;79.68;101020.25;4991952;28;20046;-79
2022/05/16 08:16:10;;;;;;;36.63;11.65;;;;;;;21.45;78.15;101025.50;4993627;28;20039;-79
2022/05/16 08:18:35;;;;;;;30.50;11.40;;;;;;;21.56;77.26;101031.72;4969529;28;20034;-79
2022/05/16 08:21:01;;;;;;;27.55;10.55;;;;;;;21.59;78.06;101037.75;4991237;28;20084;-79
2022/05/16 08:23:29;;;;;;;25.10;11.07;;;;;;;21.25;80.69;101038.22;4990577;28;20101;-78
2022/05/16 08:25:59;;;;;;;28.15;11.73;;;;;;;21.17;81.55;101041.06;4988698;28;20095;-81
2022/05/16 08:28:25;;;;;;;30.77;11.55;;;;;;;21.20;81.10;101035.13;4994052;28;20034;-80
2022/05/16 08:30:51;;;;;;;40.03;11.27;;;;;;;21.23;81.34;101041.19;4992453;28;20050;-83
2022/05/16 08:33:16;;;;;;;26.90;9.82;;;;;;;21.28;81.60;101049.00;4962560;28;20390;-82
2022/05/16 08:35:42;;;;;;;26.38;10.23;;;;;;;21.43;81.79;101046.25;4964875;28;20035;-82
2022/05/16 08:40:54;;;;;;;32.78;10.23;;;;;;;22.01;78.70;101052.13;4984949;28;20030;-82
2022/05/16 08:43:39;;;;;;;34.10;10.48;;;;;;;22.23;76.46;101050.28;4979355;28;20577;-82
2022/05/16 08:46:40;;;;;;;25.70;9.98;;;;;;;22.33;77.21;101042.53;4996572;28;20127;-82
2022/05/16 08:49:36;;;;;;;22.63;9.10;;;;;;;22.59;77.26;101052.28;5000474;28;20034;-82
2022/05/16 08:52:17;;;;;;;26.08;9.70;;;;;;;22.92;73.78;101052.69;4984611;28;20352;-83
2022/05/16 08:54:53;;;;;;;39.67;9.20;;;;;;;23.39;73.19;101047.56;4996553;28;20026;-82
2022/05/16 08:57:28;;;;;;;27.52;9.50;;;;;;;24.00;71.73;101049.75;4987127;28;20046;-82
2022/05/16 09:00:35;;;;;;;21.05;8.77;;;;;;;23.94;71.18;101035.75;4995238;28;20045;-81
2022/05/16 09:03:05;;;;;;;19.50;8.13;;;;;;;24.43;69.43;101043.09;4982022;28;20038;-81
2022/05/16 09:05:44;;;;;;;20.67;8.77;;;;;;;23.92;69.62;101040.69;5000057;28;20050;-81
2022/05/16 09:08:17;;;;;;;27.63;6.22;;;;;;;24.02;70.89;101036.47;4990916;28;20377;-79
2022/05/16 09:11:06;;;;;;;20.63;5.00;;;;;;;24.49;68.12;101044.22;4984685;28;20034;-80
2022/05/16 09:13:58;;;;;;;21.13;4.30;;;;;;;25.02;65.70;101044.44;5000612;28;20076;-80
2022/05/16 09:16:44;;;;;;;12.40;3.75;;;;;;;25.96;62.06;101042.53;4995988;28;20031;-81
2022/05/16 09:19:10;;;;;;;17.40;3.53;;;;;;;26.67;60.28;101043.59;5015599;28;20038;-80
2022/05/16 09:21:49;;;;;;;17.92;4.28;;;;;;;26.80;58.29;101037.03;4984316;28;20414;-81
2022/05/16 09:24:21;;;;;;;9.50;3.85;;;;;;;26.62;58.24;101036.91;4995578;28;20030;-81
2022/05/16 09:30:12;;;;;;;18.30;4.15;;;;;;;25.72;60.79;101037.56;4994512;28;20153;-81
2022/05/16 09:32:59;;;;;;;11.00;4.25;;;;;;;26.57;59.66;101035.63;4995210;28;20082;-79
2022/05/16 09:35:39;;;;;;;21.23;4.90;;;;;;;27.09;56.75;101031.91;4994989;28;20034;-80
2022/05/16 09:38:05;;;;;;;20.80;5.30;;;;;;;26.67;58.59;101037.97;4994076;28;20518;-78
2022/05/16 09:40:37;;;;;;;16.98;4.53;;;;;;;26.24;58.89;101041.38;5012130;28;20446;-82
2022/05/16 09:43:21;;;;;;;20.23;4.20;;;;;;;25.90;60.26;101036.91;4990819;28;20507;-82
2022/05/16 09:45:58;;;;;;;19.13;4.15;;;;;;;26.44;58.08;101046.06;4996888;28;20034;-82
2022/05/16 09:48:24;;;;;;;15.68;4.20;;;;;;;26.92;57.85;101034.38;4997633;28;20125;-82
2022/05/16 09:50:59;;;;;;;22.83;4.43;;;;;;;26.69;57.38;101037.75;5002059;28;20066;-81
2022/05/16 09:53:36;;;;;;;17.60;4.55;;;;;;;26.49;58.58;101032.22;4995464;28;20026;-81
2022/05/16 09:56:13;;;;;;;13.80;4.13;;;;;;;26.40;57.87;101043.69;4999022;28;20029;-82
2022/05/16 09:59:09;;;;;;;25.83;4.38;;;;;;;26.76;56.57;101047.00;4974466;28;20502;-83
2022/05/16 10:01:39;;;;;;;23.00;4.32;;;;;;;27.53;53.83;101052.56;4991865;28;20047;-80
2022/05/16 10:04:16;;;;;;;20.23;4.32;;;;;;;27.61;53.28;101045.78;4987532;28;20034;-81
2022/05/16 10:06:55;;;;;;;21.58;4.25;;;;;;;27.64;53.23;101053.75;5000711;28;20046;-82
2022/05/16 10:09:28;;;;;;;23.88;4.80;;;;;;;26.99;55.32;101051.19;4980980;28;20037;-80
2022/05/16 10:11:55;;;;;;;24.63;4.47;;;;;;;27.36;53.80;101066.31;4997972;28;20023;-81
2022/05/16 10:14:21;;;;;;;12.02;3.65;;;;;;;27.32;53.49;101067.88;4999875;28;20423;-81
2022/05/16 10:16:53;;;;;;;21.33;4.65;;;;;;;27.04;54.53;101069.13;5009717;28;20041;-81
2022/05/16 10:19:22;;;;;;;22.67;4.47;;;;;;;27.41;54.19;101062.84;5011573;28;20069;-82
2022/05/16 10:21:55;;;;;;;16.77;4.15;;;;;;;27.09;54.25;101069.31;4996775;28;20046;-84
2022/05/16 10:24:23;;;;;;;14.15;3.88;;;;;;;26.72;56.30;101076.66;5015000;28;20094;-82
2022/05/16 10:26:52;;;;;;;15.70;4.45;;;;;;;26.52;55.33;101074.75;4998606;28;20493;-80
2022/05/16 10:29:28;;;;;;;18.90;4.13;;;;;;;26.48;56.79;101083.84;5000749;28;20031;-79
2022/05/16 10:34:51;;;;;;;16.02;4.57;;;;;;;26.46;57.84;101086.84;5001118;28;20033;-80
2022/05/16 10:37:18;;;;;;;15.75;4.80;;;;;;;26.08;59.33;101087.63;4981601;28;20031;-80
2022/05/16 10:39:49;;;;;;;25.88;4.95;;;;;;;26.03;59.00;101096.69;4974729;28;20039;-80
2022/05/16 10:42:15;;;;;;;15.77;5.25;;;;;;;25.86;60.58;101092.59;5000477;28;20038;-80
2022/05/16 10:44:50;;;;;;;19.75;4.97;;;;;;;25.63;62.31;101093.88;4996013;28;20046;-80
2022/05/16 10:47:25;;;;;;;23.77;4.82;;;;;;;25.89;62.12;101108.13;4994888;28;20043;-80
2022/05/16 10:50:14;;;;;;;25.60;6.50;;;;;;;24.95;68.04;101100.41;5000182;28;20033;-79
2022/05/16 10:52:51;;;;;;;18.67;6.10;;;;;;;24.61;71.24;101103.31;4980930;28;20058;-80
2022/05/16 10:55:17;;;;;;;51.67;7.03;;;;;;;24.28;82.69;101124.41;5008898;28;20027;-79
2022/05/16 10:58:06;;;;;;;61.22;9.10;;;;;;;23.31;100.00;101151.09;5010569;28;20490;-82
2022/05/16 11:00:38;;;;;;;66.75;13.57;;;;;;;21.77;100.00;101154.47;5008199;28;20038;-83
2022/05/16 11:04:05;;;;;;;34.30;9.93;;;;;;;21.30;100.00;101138.81;5003443;28;20041;-82
2022/05/16 11:06:46;;;;;;;31.95;10.50;;;;;;;21.07;100.00;101142.47;4871516;29;20421;-82
2022/05/16 11:09:26;;;;;;;31.17;10.52;;;;;;;21.19;100.00;101144.81;4983169;28;20046;-80
2022/05/16 11:12:35;;;;;;;32.20;9.75;;;;;;;21.36;100.00;101140.84;4992706;28;20038;-80
2022/05/16 11:15:26;;;;;;;29.25;8.93;;;;;;;21.59;100.00;101149.22;4988798;28;20719;-80
2022/05/16 11:18:14;;;;;;;20.42;9.40;;;;;;;22.18;100.00;101148.50;4964095;28;20031;-81
2022/05/16 11:20:46;;;;;;;31.80;10.20;;;;;;;22.69;100.00;101155.25;4976725;28;20397;-82
2022/05/16 11:23:36;;;;;;;29.95;8.93;;;;;;;23.38;100.00;101145.59;4977739;28;20030;-81
2022/05/16 11:26:16;;;;;;;24.20;8.00;;;;;;;23.76;100.00;101148.09;4997037;28;20077;-80
2022/05/16 11:29:20;;;;;;;25.25;8.98;;;;;;;23.73;100.00;101154.97;4996761;28;20034;-82
2022/05/16 11:31:56;;;;;;;;;;;;;;;24.15;100.00;101141.13;4996014;28;20065;-82
2022/05/16 11:34:30;;;;;;;17.70;7.47;;;;;;;24.51;100.00;101138.09;4961097;28;19926;-80
2022/05/16 11:37:05;;;;;;;17.52;7.38;;;;;;;24.27;100.00;101135.81;4991867;28;20038;-79
2022/05/16 11:40:18;;;;;;;20.38;8.32;;;;;;;24.19;100.00;101136.84;5010845;28;20042;-82
2022/05/16 11:42:56;;;;;;;31.73;7.30;;;;;;;23.97;100.00;101148.13;4978074;28;20569;-82
2022/05/16 11:45:37;;;;;;;30.33;8.05;;;;;;;23.85;100.00;101146.91;4995764;28;20379;-80
2022/05/16 11:48:26;;;;;;;25.42;8.75;;;;;;;23.41;100.00;101139.59;4978522;28;20363;-82
2022/05/16 11:51:08;;;;;;;20.73;8.20;;;;;;;23.02;100.00;101140.84;4984725;28;20030;-82